sensor_id;sensor_type;location;lat;lon;timestamp;pressure;altitude;pressure_sealevel;temperature;humidity
36014;BME280;22275;43.208;27.620;2023-07-13T00:01:53;101251.63;;;28.32;100.00
36014;BME280;22275;43.208;27.620;2023-07-13T00:04:23;101247.28;;;28.37;100.00
36014;BME280;22275;43.208;27.620;2023-07-13T00:06:51;101248.06;;;27.95;100.00
36014;BME280;22275;43.208;27.620;2023-07-13T00:09:20;101259.09;;;27.29;100.00
36014;BME280;22275;43.208;27.620;2023-07-13T00:11:50;101269.44;;;27.25;100.00
36014;BME280;22275;43.208;27.620;2023-07-13T00:14:19;101256.63;;;27.19;100.00
36014;BME280;22275;43.208;27.620;2023-07-13T00:16:46;101262.03;;;26.90;100.00
36014;BME280;22275;43.208;27.620;2023-07-13T00:19:14;101259.34;;;27.19;100.00
36014;BME280;22275;43.208;27.620;2023-07-13T00:21:41;101264.19;;;26.95;100.00
36014;BME280;22275;43.208;27.620;2023-07-13T00:24:11;101247.72;;;27.48;100.00
36014;BME280;22275;43.208;27.620;2023-07-13T00:26:39;101250.13;;;27.58;100.00
36014;BME280;22275;43.208;27.620;2023-07-13T00:29:10;101244.72;;;27.43;100.00
36014;BME280;22275;43.208;27.620;2023-07-13T00:31:39;101240.25;;;27.21;100.00
36014;BME280;22275;43.208;27.620;2023-07-13T00:34:06;101243.13;;;27.19;100.00
36014;BME280;22275;43.208;27.620;2023-07-13T00:36:33;101246.38;;;26.86;100.00
36014;BME280;22275;43.208;27.620;2023-07-13T00:39:00;101235.00;;;27.05;100.00
36014;BME280;22275;43.208;27.620;2023-07-13T00:41:27;101240.34;;;26.75;100.00
36014;BME280;22275;43.208;27.620;2023-07-13T00:43:54;101227.19;;;26.58;100.00
36014;BME280;22275;43.208;27.620;2023-07-13T00:46:26;101222.88;;;27.01;100.00
36014;BME280;22275;43.208;27.620;2023-07-13T00:48:57;101227.81;;;26.60;100.00
36014;BME280;22275;43.208;27.620;2023-07-13T00:51:32;101219.09;;;26.35;100.00
36014;BME280;22275;43.208;27.620;2023-07-13T00:54:11;101218.97;;;26.66;100.00
36014;BME280;22275;43.208;27.620;2023-07-13T00:56:40;101215.44;;;26.51;100.00
36014;BME280;22275;43.208;27.620;2023-07-13T00:59:10;101219.13;;;26.04;100.00
36014;BME280;22275;43.208;27.620;2023-07-13T01:01:38;101219.75;;;26.37;100.00
36014;BME280;22275;43.208;27.620;2023-07-13T01:04:07;101211.59;;;26.60;100.00
36014;BME280;22275;43.208;27.620;2023-07-13T01:06:34;101213.75;;;26.50;100.00
36014;BME280;22275;43.208;27.620;2023-07-13T01:09:02;101214.50;;;26.58;100.00
36014;BME280;22275;43.208;27.620;2023-07-13T01:11:30;101208.88;;;26.82;100.00
36014;BME280;22275;43.208;27.620;2023-07-13T01:13:57;101204.88;;;26.78;100.00
36014;BME280;22275;43.208;27.620;2023-07-13T01:16:27;101206.97;;;26.68;100.00
36014;BME280;22275;43.208;27.620;2023-07-13T01:18:54;101205.94;;;26.69;100.00
36014;BME280;22275;43.208;27.620;2023-07-13T01:21:25;101204.75;;;26.72;100.00
36014;BME280;22275;43.208;27.620;2023-07-13T01:23:52;101197.31;;;26.89;100.00
36014;BME280;22275;43.208;27.620;2023-07-13T01:26:19;101196.75;;;27.08;100.00
36014;BME280;22275;43.208;27.620;2023-07-13T01:28:46;101198.78;;;26.76;100.00
36014;BME280;22275;43.208;27.620;2023-07-13T01:31:13;101209.03;;;26.66;100.00
36014;BME280;22275;43.208;27.620;2023-07-13T01:33:41;101198.41;;;26.65;100.00
36014;BME280;22275;43.208;27.620;2023-07-13T01:36:10;101196.47;;;26.73;100.00
36014;BME280;22275;43.208;27.620;2023-07-13T01:38:38;101199.28;;;26.95;100.00
36014;BME280;22275;43.208;27.620;2023-07-13T01:41:05;101187.47;;;26.96;100.00
36014;BME280;22275;43.208;27.620;2023-07-13T01:43:33;101191.91;;;26.89;100.00
36014;BME280;22275;43.208;27.620;2023-07-13T01:46:00;101189.59;;;26.86;100.00
36014;BME280;22275;43.208;27.620;2023-07-13T01:48:27;101189.66;;;26.77;100.00
36014;BME280;22275;43.208;27.620;2023-07-13T01:50:54;101185.25;;;26.76;100.00
36014;BME280;22275;43.208;27.620;2023-07-13T01:53:21;101190.91;;;26.52;100.00
36014;BME280;22275;43.208;27.620;2023-07-13T01:55:50;101185.03;;;26.49;100.00
36014;BME280;22275;43.208;27.620;2023-07-13T01:58:16;101185.16;;;26.55;100.00
36014;BME280;22275;43.208;27.620;2023-07-13T02:00:43;101185.59;;;26.81;100.00
36014;BME280;22275;43.208;27.620;2023-07-13T02:03:10;101182.09;;;26.73;100.00
36014;BME280;22275;43.208;27.620;2023-07-13T02:05:40;101177.81;;;26.64;100.00
36014;BME280;22275;43.208;27.620;2023-07-13T02:08:07;101187.69;;;26.71;100.00
36014;BME280;22275;43.208;27.620;2023-07-13T02:10:34;101183.91;;;26.80;100.00
36014;BME280;22275;43.208;27.620;2023-07-13T02:13:04;101189.31;;;26.80;100.00
36014;BME280;22275;43.208;27.620;2023-07-13T02:15:31;101180.88;;;26.75;100.00
36014;BME280;22275;43.208;27.620;2023-07-13T02:17:58;101176.22;;;26.69;100.00
36014;BME280;22275;43.208;27.620;2023-07-13T02:20:26;101186.88;;;26.86;100.00
36014;BME280;22275;43.208;27.620;2023-07-13T02:22:53;101183.16;;;27.16;100.00
36014;BME280;22275;43.208;27.620;2023-07-13T02:25:20;101174.38;;;27.43;100.00
36014;BME280;22275;43.208;27.620;2023-07-13T02:27:47;101176.72;;;27.46;100.00
36014;BME280;22275;43.208;27.620;2023-07-13T02:30:15;101180.91;;;27.05;100.00
36014;BME280;22275;43.208;27.620;2023-07-13T02:32:42;101186.88;;;26.86;100.00
36014;BME280;22275;43.208;27.620;2023-07-13T02:35:10;101179.13;;;27.26;100.00
36014;BME280;22275;43.208;27.620;2023-07-13T02:37:37;101196.97;;;26.92;100.00
36014;BME280;22275;43.208;27.620;2023-07-13T02:40:05;101193.34;;;26.85;100.00
36014;BME280;22275;43.208;27.620;2023-07-13T02:42:34;101205.34;;;26.59;100.00
36014;BME280;22275;43.208;27.620;2023-07-13T02:45:01;101196.44;;;26.59;100.00
36014;BME280;22275;43.208;27.620;2023-07-13T02:47:29;101182.91;;;26.96;100.00
36014;BME280;22275;43.208;27.620;2023-07-13T02:49:56;101186.88;;;27.00;100.00
36014;BME280;22275;43.208;27.620;2023-07-13T02:52:24;101183.53;;;26.83;100.00
36014;BME280;22275;43.208;27.620;2023-07-13T02:54:51;101192.28;;;26.86;100.00
36014;BME280;22275;43.208;27.620;2023-07-13T02:57:18;101192.41;;;26.92;100.00
36014;BME280;22275;43.208;27.620;2023-07-13T02:59:46;101188.59;;;26.64;100.00
36014;BME280;22275;43.208;27.620;2023-07-13T03:02:13;101185.88;;;27.01;100.00
36014;BME280;22275;43.208;27.620;2023-07-13T03:04:41;101177.75;;;27.16;100.00
36014;BME280;22275;43.208;27.620;2023-07-13T03:07:08;101172.25;;;27.24;100.00
36014;BME280;22275;43.208;27.620;2023-07-13T03:09:36;101173.63;;;27.49;100.00
36014;BME280;22275;43.208;27.620;2023-07-13T03:12:03;101184.13;;;27.59;100.00
36014;BME280;22275;43.208;27.620;2023-07-13T03:14:30;101179.84;;;27.64;100.00
36014;BME280;22275;43.208;27.620;2023-07-13T03:16:57;101188.81;;;27.50;100.00
36014;BME280;22275;43.208;27.620;2023-07-13T03:19:25;101178.94;;;27.43;100.00
36014;BME280;22275;43.208;27.620;2023-07-13T03:21:53;101191.66;;;27.13;100.00
36014;BME280;22275;43.208;27.620;2023-07-13T03:24:20;101187.78;;;27.22;100.00
36014;BME280;22275;43.208;27.620;2023-07-13T03:26:51;101191.34;;;27.37;100.00
36014;BME280;22275;43.208;27.620;2023-07-13T03:29:18;101189.75;;;27.13;100.00
36014;BME280;22275;43.208;27.620;2023-07-13T03:31:45;101182.94;;;27.61;100.00
36014;BME280;22275;43.208;27.620;2023-07-13T03:34:12;101188.91;;;27.42;100.00
36014;BME280;22275;43.208;27.620;2023-07-13T03:36:40;101188.66;;;27.73;100.00
36014;BME280;22275;43.208;27.620;2023-07-13T03:39:08;101185.50;;;27.69;100.00
36014;BME280;22275;43.208;27.620;2023-07-13T03:41:36;101186.44;;;27.62;100.00
36014;BME280;22275;43.208;27.620;2023-07-13T03:44:03;101194.78;;;27.81;100.00
36014;BME280;22275;43.208;27.620;2023-07-13T03:46:30;101183.97;;;28.03;100.00
36014;BME280;22275;43.208;27.620;2023-07-13T03:48:59;101183.97;;;28.03;100.00
36014;BME280;22275;43.208;27.620;2023-07-13T03:51:26;101185.94;;;28.09;100.00
36014;BME280;22275;43.208;27.620;2023-07-13T03:53:53;101197.44;;;28.11;100.00
36014;BME280;22275;43.208;27.620;2023-07-13T03:56:21;101191.31;;;28.23;100.00
36014;BME280;22275;43.208;27.620;2023-07-13T03:58:50;101194.41;;;28.20;100.00
36014;BME280;22275;43.208;27.620;2023-07-13T04:01:18;101198.38;;;28.24;100.00
36014;BME280;22275;43.208;27.620;2023-07-13T04:03:47;101205.25;;;28.48;100.00
36014;BME280;22275;43.208;27.620;2023-07-13T04:06:16;101195.06;;;28.71;100.00
36014;BME280;22275;43.208;27.620;2023-07-13T04:08:47;101190.75;;;28.83;100.00
36014;BME280;22275;43.208;27.620;2023-07-13T04:11:17;101182.75;;;29.09;100.00
36014;BME280;22275;43.208;27.620;2023-07-13T04:13:46;101179.56;;;29.34;100.00
36014;BME280;22275;43.208;27.620;2023-07-13T04:16:13;101185.88;;;29.06;100.00
36014;BME280;22275;43.208;27.620;2023-07-13T04:18:41;101189.03;;;28.76;100.00
36014;BME280;22275;43.208;27.620;2023-07-13T04:21:08;101187.38;;;28.81;100.00
36014;BME280;22275;43.208;27.620;2023-07-13T04:23:36;101203.66;;;28.81;100.00
36014;BME280;22275;43.208;27.620;2023-07-13T04:26:04;101195.84;;;28.99;100.00
36014;BME280;22275;43.208;27.620;2023-07-13T04:28:31;101194.91;;;29.14;100.00
36014;BME280;22275;43.208;27.620;2023-07-13T04:31:00;101191.41;;;29.26;100.00
36014;BME280;22275;43.208;27.620;2023-07-13T04:33:27;101196.72;;;29.41;100.00
36014;BME280;22275;43.208;27.620;2023-07-13T04:35:55;101198.09;;;29.24;100.00
36014;BME280;22275;43.208;27.620;2023-07-13T04:38:23;101192.78;;;29.50;100.00
36014;BME280;22275;43.208;27.620;2023-07-13T04:40:54;101213.66;;;29.08;100.00
36014;BME280;22275;43.208;27.620;2023-07-13T04:43:21;101207.75;;;29.33;100.00
36014;BME280;22275;43.208;27.620;2023-07-13T04:45:49;101205.13;;;29.52;100.00
36014;BME280;22275;43.208;27.620;2023-07-13T04:48:19;101206.03;;;29.73;100.00
36014;BME280;22275;43.208;27.620;2023-07-13T04:50:46;101205.56;;;29.56;100.00
36014;BME280;22275;43.208;27.620;2023-07-13T04:53:13;101202.56;;;29.85;100.00
36014;BME280;22275;43.208;27.620;2023-07-13T04:55:41;101201.47;;;29.86;100.00
36014;BME280;22275;43.208;27.620;2023-07-13T04:58:08;101197.78;;;30.13;100.00
36014;BME280;22275;43.208;27.620;2023-07-13T05:00:35;101197.19;;;30.44;100.00
36014;BME280;22275;43.208;27.620;2023-07-13T05:03:03;101198.88;;;30.65;100.00
36014;BME280;22275;43.208;27.620;2023-07-13T05:05:31;101199.03;;;31.03;100.00
36014;BME280;22275;43.208;27.620;2023-07-13T05:07:59;101198.78;;;31.11;100.00
36014;BME280;22275;43.208;27.620;2023-07-13T05:10:27;101193.34;;;31.11;100.00
36014;BME280;22275;43.208;27.620;2023-07-13T05:12:54;101201.34;;;30.99;100.00
36014;BME280;22275;43.208;27.620;2023-07-13T05:15:22;101200.03;;;31.15;100.00
36014;BME280;22275;43.208;27.620;2023-07-13T05:17:51;101198.25;;;31.47;100.00
36014;BME280;22275;43.208;27.620;2023-07-13T05:20:18;101201.09;;;31.71;100.00
36014;BME280;22275;43.208;27.620;2023-07-13T05:22:47;101198.50;;;31.83;100.00
36014;BME280;22275;43.208;27.620;2023-07-13T05:25:16;101200.31;;;31.64;100.00
36014;BME280;22275;43.208;27.620;2023-07-13T05:27:43;101208.66;;;31.69;100.00
36014;BME280;22275;43.208;27.620;2023-07-13T05:30:13;101198.97;;;31.73;100.00
36014;BME280;22275;43.208;27.620;2023-07-13T05:32:40;101206.59;;;31.96;100.00
36014;BME280;22275;43.208;27.620;2023-07-13T05:35:07;101210.91;;;32.10;100.00
36014;BME280;22275;43.208;27.620;2023-07-13T05:37:35;101201.09;;;32.09;100.00
36014;BME280;22275;43.208;27.620;2023-07-13T05:40:03;101192.19;;;32.20;100.00
36014;BME280;22275;43.208;27.620;2023-07-13T05:42:31;101213.28;;;32.31;100.00
36014;BME280;22275;43.208;27.620;2023-07-13T05:44:58;101207.56;;;32.39;100.00
36014;BME280;22275;43.208;27.620;2023-07-13T05:47:25;101209.41;;;32.46;100.00
36014;BME280;22275;43.208;27.620;2023-07-13T05:49:52;101200.47;;;32.63;100.00
36014;BME280;22275;43.208;27.620;2023-07-13T05:52:19;101206.84;;;32.75;100.00
36014;BME280;22275;43.208;27.620;2023-07-13T05:54:46;101205.28;;;32.86;100.00
36014;BME280;22275;43.208;27.620;2023-07-13T05:57:14;101198.28;;;32.90;100.00
36014;BME280;22275;43.208;27.620;2023-07-13T05:59:42;101202.50;;;32.68;100.00
36014;BME280;22275;43.208;27.620;2023-07-13T06:02:09;101194.94;;;32.70;100.00
36014;BME280;22275;43.208;27.620;2023-07-13T06:04:36;101197.69;;;32.88;100.00
36014;BME280;22275;43.208;27.620;2023-07-13T06:07:04;101190.41;;;32.82;100.00
36014;BME280;22275;43.208;27.620;2023-07-13T06:09:31;101190.44;;;33.00;100.00
36014;BME280;22275;43.208;27.620;2023-07-13T06:11:58;101195.75;;;33.13;100.00
36014;BME280;22275;43.208;27.620;2023-07-13T06:14:27;101191.16;;;33.43;100.00
36014;BME280;22275;43.208;27.620;2023-07-13T06:16:54;101182.53;;;33.65;100.00
36014;BME280;22275;43.208;27.620;2023-07-13T06:19:21;101177.81;;;33.72;100.00
36014;BME280;22275;43.208;27.620;2023-07-13T06:21:48;101191.75;;;33.82;100.00
36014;BME280;22275;43.208;27.620;2023-07-13T06:24:15;101188.66;;;34.08;100.00
36014;BME280;22275;43.208;27.620;2023-07-13T06:26:42;101193.44;;;34.24;100.00
36014;BME280;22275;43.208;27.620;2023-07-13T06:29:10;101183.44;;;34.18;100.00
36014;BME280;22275;43.208;27.620;2023-07-13T06:31:38;101179.88;;;34.29;100.00
36014;BME280;22275;43.208;27.620;2023-07-13T06:34:05;101177.00;;;34.24;100.00
36014;BME280;22275;43.208;27.620;2023-07-13T06:36:32;101185.09;;;33.89;100.00
36014;BME280;22275;43.208;27.620;2023-07-13T06:39:01;101181.88;;;33.81;100.00
36014;BME280;22275;43.208;27.620;2023-07-13T06:41:28;101177.66;;;33.67;100.00
36014;BME280;22275;43.208;27.620;2023-07-13T06:43:56;101180.63;;;33.47;100.00
36014;BME280;22275;43.208;27.620;2023-07-13T06:46:23;101184.03;;;33.90;100.00
36014;BME280;22275;43.208;27.620;2023-07-13T06:48:52;101178.78;;;34.19;100.00
36014;BME280;22275;43.208;27.620;2023-07-13T06:51:19;101168.31;;;34.16;100.00
36014;BME280;22275;43.208;27.620;2023-07-13T06:53:46;101175.81;;;34.20;100.00
36014;BME280;22275;43.208;27.620;2023-07-13T06:56:13;101172.03;;;34.44;100.00
36014;BME280;22275;43.208;27.620;2023-07-13T06:58:40;101166.94;;;34.36;100.00
36014;BME280;22275;43.208;27.620;2023-07-13T07:01:08;101168.25;;;34.45;100.00
36014;BME280;22275;43.208;27.620;2023-07-13T07:03:36;101171.31;;;34.37;100.00
36014;BME280;22275;43.208;27.620;2023-07-13T07:06:12;101167.53;;;34.85;100.00
36014;BME280;22275;43.208;27.620;2023-07-13T07:08:40;101164.25;;;35.22;100.00
36014;BME280;22275;43.208;27.620;2023-07-13T07:11:08;101154.53;;;35.43;100.00
36014;BME280;22275;43.208;27.620;2023-07-13T07:13:35;101161.50;;;35.22;100.00
36014;BME280;22275;43.208;27.620;2023-07-13T07:16:02;101163.31;;;35.17;100.00
36014;BME280;22275;43.208;27.620;2023-07-13T07:18:30;101164.63;;;35.54;100.00
36014;BME280;22275;43.208;27.620;2023-07-13T07:20:57;101163.16;;;35.35;100.00
36014;BME280;22275;43.208;27.620;2023-07-13T07:23:25;101157.44;;;35.65;100.00
36014;BME280;22275;43.208;27.620;2023-07-13T07:25:52;101155.34;;;35.84;100.00
36014;BME280;22275;43.208;27.620;2023-07-13T07:28:20;101154.63;;;36.05;100.00
36014;BME280;22275;43.208;27.620;2023-07-13T07:30:48;101158.94;;;36.01;100.00
36014;BME280;22275;43.208;27.620;2023-07-13T07:33:15;101159.53;;;36.03;100.00
36014;BME280;22275;43.208;27.620;2023-07-13T07:35:43;101154.56;;;35.71;100.00
36014;BME280;22275;43.208;27.620;2023-07-13T07:38:10;101154.16;;;35.80;100.00
36014;BME280;22275;43.208;27.620;2023-07-13T07:40:39;101152.56;;;36.12;100.00
36014;BME280;22275;43.208;27.620;2023-07-13T07:43:07;101148.16;;;36.27;100.00
36014;BME280;22275;43.208;27.620;2023-07-13T07:45:34;101149.66;;;36.35;100.00
36014;BME280;22275;43.208;27.620;2023-07-13T07:48:03;101149.25;;;36.81;100.00
36014;BME280;22275;43.208;27.620;2023-07-13T07:50:30;101144.84;;;36.97;100.00
36014;BME280;22275;43.208;27.620;2023-07-13T07:52:58;101143.00;;;36.86;100.00
36014;BME280;22275;43.208;27.620;2023-07-13T07:55:27;101143.84;;;36.86;100.00
36014;BME280;22275;43.208;27.620;2023-07-13T07:57:56;101134.09;;;37.17;100.00
36014;BME280;22275;43.208;27.620;2023-07-13T08:00:23;101125.81;;;37.12;100.00
36014;BME280;22275;43.208;27.620;2023-07-13T08:02:50;101129.41;;;36.74;100.00
36014;BME280;22275;43.208;27.620;2023-07-13T08:05:17;101125.06;;;37.22;100.00
36014;BME280;22275;43.208;27.620;2023-07-13T08:07:44;101131.72;;;37.26;100.00
36014;BME280;22275;43.208;27.620;2023-07-13T08:10:11;101117.72;;;37.49;100.00
36014;BME280;22275;43.208;27.620;2023-07-13T08:12:40;101119.53;;;37.65;100.00
36014;BME280;22275;43.208;27.620;2023-07-13T08:15:17;101124.34;;;37.80;100.00
36014;BME280;22275;43.208;27.620;2023-07-13T08:17:46;101109.47;;;38.08;100.00
36014;BME280;22275;43.208;27.620;2023-07-13T08:20:13;101109.44;;;38.34;100.00
36014;BME280;22275;43.208;27.620;2023-07-13T08:22:41;101102.28;;;38.07;100.00
36014;BME280;22275;43.208;27.620;2023-07-13T08:25:08;101100.91;;;38.41;100.00
36014;BME280;22275;43.208;27.620;2023-07-13T08:27:35;101103.69;;;38.93;100.00
36014;BME280;22275;43.208;27.620;2023-07-13T08:30:03;101098.22;;;39.03;100.00
36014;BME280;22275;43.208;27.620;2023-07-13T08:32:32;101105.00;;;38.80;100.00
36014;BME280;22275;43.208;27.620;2023-07-13T08:34:59;101095.50;;;39.18;100.00
36014;BME280;22275;43.208;27.620;2023-07-13T08:37:26;101095.19;;;39.04;100.00
36014;BME280;22275;43.208;27.620;2023-07-13T08:39:54;101090.09;;;39.53;100.00
36014;BME280;22275;43.208;27.620;2023-07-13T08:42:31;101084.03;;;39.56;100.00
36014;BME280;22275;43.208;27.620;2023-07-13T08:45:08;101090.91;;;39.44;100.00
36014;BME280;22275;43.208;27.620;2023-07-13T08:47:41;101082.94;;;39.47;100.00
36014;BME280;22275;43.208;27.620;2023-07-13T08:50:15;101076.56;;;40.38;100.00
36014;BME280;22275;43.208;27.620;2023-07-13T08:52:44;101075.50;;;40.29;100.00
36014;BME280;22275;43.208;27.620;2023-07-13T08:55:14;101079.84;;;40.45;100.00
36014;BME280;22275;43.208;27.620;2023-07-13T08:57:46;101076.19;;;40.74;100.00
36014;BME280;22275;43.208;27.620;2023-07-13T09:00:15;101074.28;;;40.70;100.00
36014;BME280;22275;43.208;27.620;2023-07-13T09:02:46;101064.94;;;41.59;100.00
36014;BME280;22275;43.208;27.620;2023-07-13T09:05:15;101067.38;;;41.26;100.00
36014;BME280;22275;43.208;27.620;2023-07-13T09:08:04;101058.97;;;41.47;100.00
36014;BME280;22275;43.208;27.620;2023-07-13T09:10:41;101055.03;;;41.53;100.00
36014;BME280;22275;43.208;27.620;2023-07-13T09:13:22;101057.97;;;41.33;100.00
36014;BME280;22275;43.208;27.620;2023-07-13T09:15:52;101056.84;;;41.34;100.00
36014;BME280;22275;43.208;27.620;2023-07-13T09:18:25;101064.78;;;40.96;100.00
36014;BME280;22275;43.208;27.620;2023-07-13T09:20:58;101050.50;;;41.67;100.00
36014;BME280;22275;43.208;27.620;2023-07-13T09:23:28;101054.88;;;41.73;100.00
36014;BME280;22275;43.208;27.620;2023-07-13T09:26:01;101052.59;;;41.85;100.00
36014;BME280;22275;43.208;27.620;2023-07-13T09:28:35;101049.69;;;41.95;100.00
36014;BME280;22275;43.208;27.620;2023-07-13T09:31:07;101065.53;;;41.12;100.00
36014;BME280;22275;43.208;27.620;2023-07-13T09:33:39;101053.25;;;41.28;100.00
36014;BME280;22275;43.208;27.620;2023-07-13T09:36:18;101057.72;;;40.65;100.00
36014;BME280;22275;43.208;27.620;2023-07-13T09:38:47;101044.69;;;41.24;100.00
36014;BME280;22275;43.208;27.620;2023-07-13T09:41:20;101049.38;;;41.29;100.00
36014;BME280;22275;43.208;27.620;2023-07-13T09:44:06;101037.94;;;41.46;100.00
36014;BME280;22275;43.208;27.620;2023-07-13T09:46:35;101035.34;;;41.59;100.00
36014;BME280;22275;43.208;27.620;2023-07-13T09:49:03;101032.03;;;41.91;100.00
36014;BME280;22275;43.208;27.620;2023-07-13T09:51:30;101023.69;;;41.96;100.00
36014;BME280;22275;43.208;27.620;2023-07-13T09:53:57;101008.53;;;42.12;100.00
36014;BME280;22275;43.208;27.620;2023-07-13T09:56:27;101010.75;;;42.15;100.00
36014;BME280;22275;43.208;27.620;2023-07-13T09:58:55;101008.31;;;42.37;96.97
36014;BME280;22275;43.208;27.620;2023-07-13T10:01:34;101004.47;;;42.33;92.34
36014;BME280;22275;43.208;27.620;2023-07-13T10:04:10;100998.81;;;43.42;89.21
36014;BME280;22275;43.208;27.620;2023-07-13T10:06:39;100991.84;;;42.22;85.01
36014;BME280;22275;43.208;27.620;2023-07-13T10:09:09;100983.28;;;42.85;80.59
36014;BME280;22275;43.208;27.620;2023-07-13T10:11:37;100976.09;;;43.21;80.08
36014;BME280;22275;43.208;27.620;2023-07-13T10:14:11;100974.03;;;43.45;83.05
36014;BME280;22275;43.208;27.620;2023-07-13T10:16:41;100976.47;;;42.11;78.52
36014;BME280;22275;43.208;27.620;2023-07-13T10:19:12;100968.63;;;42.42;78.06
36014;BME280;22275;43.208;27.620;2023-07-13T10:21:49;100965.50;;;42.49;80.25
36014;BME280;22275;43.208;27.620;2023-07-13T10:24:21;100962.47;;;43.06;76.97
36014;BME280;22275;43.208;27.620;2023-07-13T10:26:52;100964.41;;;43.24;75.86
36014;BME280;22275;43.208;27.620;2023-07-13T10:29:22;100968.72;;;43.63;74.42
36014;BME280;22275;43.208;27.620;2023-07-13T10:31:51;100965.22;;;43.57;72.70
36014;BME280;22275;43.208;27.620;2023-07-13T10:34:19;100955.44;;;43.92;70.34
36014;BME280;22275;43.208;27.620;2023-07-13T10:36:48;100954.69;;;43.73;71.20
36014;BME280;22275;43.208;27.620;2023-07-13T10:39:17;100943.94;;;43.53;71.43
36014;BME280;22275;43.208;27.620;2023-07-13T10:41:49;100950.66;;;43.33;70.45
36014;BME280;22275;43.208;27.620;2023-07-13T10:44:23;100946.19;;;43.37;69.98
36014;BME280;22275;43.208;27.620;2023-07-13T10:46:54;100951.00;;;43.77;71.07
36014;BME280;22275;43.208;27.620;2023-07-13T10:49:24;100943.50;;;43.45;66.85
36014;BME280;22275;43.208;27.620;2023-07-13T10:51:53;100947.03;;;43.00;70.95
36014;BME280;22275;43.208;27.620;2023-07-13T10:54:22;100937.81;;;43.05;67.61
36014;BME280;22275;43.208;27.620;2023-07-13T10:57:08;100940.22;;;43.43;67.03
36014;BME280;22275;43.208;27.620;2023-07-13T10:59:42;100937.59;;;42.82;68.22
36014;BME280;22275;43.208;27.620;2023-07-13T11:02:20;100945.94;;;43.33;65.49
36014;BME280;22275;43.208;27.620;2023-07-13T11:04:49;100934.28;;;43.82;64.41
36014;BME280;22275;43.208;27.620;2023-07-13T11:07:21;100925.13;;;44.36;61.71
36014;BME280;22275;43.208;27.620;2023-07-13T11:09:52;100928.13;;;44.13;63.82
36014;BME280;22275;43.208;27.620;2023-07-13T11:15:13;100929.44;;;43.23;65.09
36014;BME280;22275;43.208;27.620;2023-07-13T11:17:49;100935.41;;;43.17;64.80
36014;BME280;22275;43.208;27.620;2023-07-13T11:20:26;100938.38;;;43.20;64.48
36014;BME280;22275;43.208;27.620;2023-07-13T11:23:21;100938.56;;;43.88;62.44
36014;BME280;22275;43.208;27.620;2023-07-13T11:25:53;100924.91;;;44.33;61.30
36014;BME280;22275;43.208;27.620;2023-07-13T11:28:24;100931.91;;;43.76;60.32
36014;BME280;22275;43.208;27.620;2023-07-13T11:31:01;100933.72;;;43.02;62.04
36014;BME280;22275;43.208;27.620;2023-07-13T11:33:49;100935.84;;;42.86;61.61
36014;BME280;22275;43.208;27.620;2023-07-13T11:36:19;100927.31;;;43.53;62.17
36014;BME280;22275;43.208;27.620;2023-07-13T11:38:57;100928.44;;;44.25;60.54
36014;BME280;22275;43.208;27.620;2023-07-13T11:41:27;100931.53;;;44.73;58.90
36014;BME280;22275;43.208;27.620;2023-07-13T11:43:55;100925.16;;;44.45;59.13
36014;BME280;22275;43.208;27.620;2023-07-13T11:46:28;100941.34;;;42.73;99.64
36014;BME280;22275;43.208;27.620;2023-07-13T11:48:55;100940.91;;;42.42;100.00
36014;BME280;22275;43.208;27.620;2023-07-13T11:51:25;100942.91;;;42.13;100.00
36014;BME280;22275;43.208;27.620;2023-07-13T11:53:55;100942.97;;;41.84;100.00
36014;BME280;22275;43.208;27.620;2023-07-13T11:56:24;100931.00;;;41.31;100.00
36014;BME280;22275;43.208;27.620;2023-07-13T11:58:55;100927.63;;;41.39;100.00
36014;BME280;22275;43.208;27.620;2023-07-13T12:01:23;100921.34;;;41.28;100.00
36014;BME280;22275;43.208;27.620;2023-07-13T12:03:52;100938.41;;;40.58;100.00
36014;BME280;22275;43.208;27.620;2023-07-13T12:06:26;100933.31;;;40.80;100.00
36014;BME280;22275;43.208;27.620;2023-07-13T12:08:56;100943.75;;;40.88;100.00
36014;BME280;22275;43.208;27.620;2023-07-13T12:11:24;100947.31;;;40.50;100.00
36014;BME280;22275;43.208;27.620;2023-07-13T12:13:51;100942.00;;;41.02;100.00
36014;BME280;22275;43.208;27.620;2023-07-13T12:16:26;100936.63;;;40.77;100.00
36014;BME280;22275;43.208;27.620;2023-07-13T12:18:54;100936.00;;;40.41;100.00
36014;BME280;22275;43.208;27.620;2023-07-13T12:21:27;100941.88;;;40.19;100.00
36014;BME280;22275;43.208;27.620;2023-07-13T12:23:56;100938.88;;;40.01;100.00
36014;BME280;22275;43.208;27.620;2023-07-13T12:26:23;100940.81;;;40.15;100.00
36014;BME280;22275;43.208;27.620;2023-07-13T12:28:53;100928.50;;;40.52;100.00
36014;BME280;22275;43.208;27.620;2023-07-13T12:31:30;100936.47;;;39.74;100.00
36014;BME280;22275;43.208;27.620;2023-07-13T12:34:00;100920.84;;;40.29;100.00
36014;BME280;22275;43.208;27.620;2023-07-13T12:36:32;100921.91;;;40.38;100.00
36014;BME280;22275;43.208;27.620;2023-07-13T12:39:00;100919.00;;;40.68;100.00
36014;BME280;22275;43.208;27.620;2023-07-13T12:41:30;100913.06;;;40.90;100.00
36014;BME280;22275;43.208;27.620;2023-07-13T12:43:59;100910.22;;;40.61;100.00